Time;durP1;ratioP1;P1;durP2;ratioP2;P2;SDS_P1;SDS_P2;PMS_P1;PMS_P2;Temp;Humidity;BMP_temperature;BMP_pressure;BME280_temperature;BME280_humidity;BME280_pressure;Samples;Min_cycle;Max_cycle;Signal;HPM_P1;HPM_P2
2022/03/18 00:01:49;;;;;;;;;;;7.10;99.90;;;;;;6027987;23;19932;-80
2022/03/18 00:04:46;;;;;;;;;;;7.10;99.90;;;;;;5002924;28;19933;-80
2022/03/18 00:07:51;;;;;;;;;;;7.10;99.90;;;;;;5015287;28;19933;-80
2022/03/18 00:10:51;;;;;;;;;;;7.10;99.90;;;;;;5003272;28;20358;-80
2022/03/18 00:13:53;;;;;;;;;;;7.10;99.90;;;;;;5013963;28;20318;-80
2022/03/18 00:16:49;;;;;;;;;;;7.10;99.90;;;;;;5009066;28;19934;-79
2022/03/18 00:19:42;;;;;;;;;;;7.10;99.90;;;;;;5012601;28;20275;-80
2022/03/18 00:22:12;;;;;;;;;;;7.10;99.90;;;;;;5000023;28;19929;-80
2022/03/18 00:24:48;;;;;;;;;;;7.00;99.90;;;;;;5000929;28;19933;-80
2022/03/18 00:28:01;;;;;;;;;;;7.00;99.90;;;;;;5018060;28;19941;-80
2022/03/18 00:30:32;;;;;;;;;;;7.00;99.90;;;;;;4997720;28;20016;-80
2022/03/18 00:33:02;;;;;;;;;;;7.10;99.90;;;;;;5003390;28;19926;-80
2022/03/18 00:38:28;;;;;;;;;;;7.10;99.90;;;;;;5078565;23;19929;-80
2022/03/18 00:40:56;;;;;;;;;;;7.00;99.90;;;;;;5020639;28;19909;-82
2022/03/18 00:43:24;;;;;;;;;;;7.00;99.90;;;;;;5023054;28;19921;-82
2022/03/18 00:45:52;;;;;;;;;;;7.00;99.90;;;;;;5026237;28;19976;-80
2022/03/18 00:53:51;;;;;;;;;;;7.00;99.90;;;;;;5013768;28;20287;-80
2022/03/18 00:56:18;;;;;;;;;;;7.00;99.90;;;;;;4999824;28;19933;-80
2022/03/18 00:58:47;;;;;;;;;;;7.00;99.90;;;;;;5006086;28;19971;-80
2022/03/18 01:01:14;;;;;;;;;;;7.00;99.90;;;;;;5021465;28;19925;-80
2022/03/18 01:03:41;;;;;;;;;;;7.00;99.90;;;;;;5021196;28;19976;-80
2022/03/18 01:06:08;;;;;;;;;;;7.00;99.90;;;;;;5007931;28;19929;-80
2022/03/18 01:08:35;;;;;;;;;;;7.00;99.90;;;;;;5023641;28;20390;-80
2022/03/18 01:11:04;;;;;;;;;;;7.00;99.90;;;;;;5018978;28;19992;-80
2022/03/18 01:13:31;;;;;;;;;;;6.90;99.90;;;;;;5017829;28;19980;-80
2022/03/18 01:16:00;;;;;;;;;;;7.00;99.90;;;;;;5010456;28;19961;-80
2022/03/18 01:18:28;;;;;;;;;;;7.00;99.90;;;;;;5020281;28;20342;-80
2022/03/18 01:20:56;;;;;;;;;;;7.00;99.90;;;;;;5016506;28;19947;-81
2022/03/18 01:23:23;;;;;;;;;;;7.00;99.90;;;;;;5020860;28;19972;-80
2022/03/18 01:25:50;;;;;;;;;;;7.00;99.90;;;;;;4997060;28;19929;-80
2022/03/18 01:28:17;;;;;;;;;;;7.00;99.90;;;;;;4994271;23;19925;-76
2022/03/18 01:30:44;;;;;;;;;;;7.00;99.90;;;;;;5003981;28;20422;-78
2022/03/18 01:33:15;;;;;;;;;;;7.00;99.90;;;;;;5006872;28;20570;-77
2022/03/18 01:35:42;;;;;;;;;;;7.00;99.90;;;;;;5003667;28;19957;-77
2022/03/18 01:38:10;;;;;;;;;;;6.90;99.90;;;;;;5005362;28;19936;-77
2022/03/18 01:40:40;;;;;;;;;;;7.00;99.90;;;;;;5005018;28;20399;-77
2022/03/18 01:43:08;;;;;;;;;;;7.00;99.90;;;;;;4991723;28;20032;-78
2022/03/18 01:45:35;;;;;;;;;;;6.90;99.90;;;;;;5006464;28;19925;-77
2022/03/18 01:48:03;;;;;;;;;;;6.90;99.90;;;;;;5004448;28;19929;-77
2022/03/18 01:50:31;;;;;;;;;;;6.90;99.90;;;;;;4992903;28;20028;-77
2022/03/18 01:52:59;;;;;;;;;;;7.00;99.90;;;;;;4998985;28;19929;-77
2022/03/18 01:55:26;;;;;;;;;;;6.90;99.90;;;;;;5005133;28;19930;-77
2022/03/18 01:57:53;;;;;;;;;;;6.90;99.90;;;;;;5006287;28;19932;-77
2022/03/18 02:00:21;;;;;;;;;;;6.90;99.90;;;;;;5000567;28;19939;-78
2022/03/18 02:02:49;;;;;;;;;;;6.90;99.90;;;;;;5008751;28;19930;-77
2022/03/18 02:05:16;;;;;;;;;;;6.90;99.90;;;;;;4987252;28;19937;-77
2022/03/18 02:07:45;;;;;;;;;;;6.90;99.90;;;;;;5004958;28;19934;-77
2022/03/18 02:10:12;;;;;;;;;;;6.90;99.90;;;;;;5002576;28;20006;-78
2022/03/18 02:12:41;;;;;;;;;;;6.90;99.90;;;;;;5004980;28;19981;-77
2022/03/18 02:15:09;;;;;;;;;;;6.90;99.90;;;;;;5008296;28;19929;-78
2022/03/18 02:17:37;;;;;;;;;;;6.90;99.90;;;;;;4988208;28;19929;-76
2022/03/18 02:20:04;;;;;;;;;;;6.90;99.90;;;;;;4988385;28;19929;-76
2022/03/18 02:22:35;;;;;;;;;;;6.90;99.90;;;;;;5008810;28;20040;-77
2022/03/18 02:25:02;;;;;;;;;;;6.90;99.90;;;;;;5008255;28;20418;-77
2022/03/18 02:27:29;;;;;;;;;;;6.90;99.90;;;;;;4987179;28;19933;-77
2022/03/18 02:29:56;;;;;;;;;;;6.90;99.90;;;;;;4992618;28;20122;-77
2022/03/18 02:32:23;;;;;;;;;;;6.90;99.90;;;;;;5008721;28;19979;-77
2022/03/18 02:34:50;;;;;;;;;;;6.90;99.90;;;;;;4990826;28;20304;-76
2022/03/18 02:37:17;;;;;;;;;;;6.90;99.90;;;;;;5005713;28;20096;-76
2022/03/18 02:39:46;;;;;;;;;;;6.80;99.90;;;;;;4989749;28;19973;-78
2022/03/18 02:42:13;;;;;;;;;;;6.90;99.90;;;;;;4984414;28;19933;-76
2022/03/18 02:44:40;;;;;;;;;;;6.90;99.90;;;;;;5002951;28;19930;-77
2022/03/18 02:47:08;;;;;;;;;;;6.80;99.90;;;;;;4989137;28;19976;-78
2022/03/18 02:49:35;;;;;;;;;;;6.80;99.90;;;;;;5007016;28;19935;-76
2022/03/18 02:52:02;;;;;;;;;;;6.80;99.90;;;;;;4989539;28;20406;-77
2022/03/18 02:54:29;;;;;;;;;;;6.80;99.90;;;;;;4999584;28;19926;-77
2022/03/18 02:56:57;;;;;;;;;;;6.80;99.90;;;;;;4989044;28;19947;-77
2022/03/18 02:59:24;;;;;;;;;;;6.80;99.90;;;;;;5004805;28;19925;-77
2022/03/18 03:01:51;;;;;;;;;;;6.80;99.90;;;;;;5005014;28;20016;-77
2022/03/18 03:04:18;;;;;;;;;;;6.80;99.90;;;;;;5003323;28;19941;-77
2022/03/18 03:09:29;;;;;;;;;;;6.80;99.90;;;;;;5004813;28;20397;-76
2022/03/18 03:12:00;;;;;;;;;;;6.80;99.90;;;;;;4996566;28;20017;-78
2022/03/18 03:14:27;;;;;;;;;;;6.80;99.90;;;;;;5004962;28;19929;-76
2022/03/18 03:16:54;;;;;;;;;;;6.80;99.90;;;;;;5004844;28;20605;-77
2022/03/18 03:19:21;;;;;;;;;;;6.80;99.90;;;;;;5000599;28;19933;-77
2022/03/18 03:21:48;;;;;;;;;;;6.80;99.90;;;;;;5009205;28;19936;-77
2022/03/18 03:24:17;;;;;;;;;;;6.80;99.90;;;;;;5003392;28;20063;-77
2022/03/18 03:26:43;;;;;;;;;;;6.80;99.90;;;;;;5005289;28;19925;-77
2022/03/18 03:29:13;;;;;;;;;;;6.80;99.90;;;;;;5003798;28;19940;-76
2022/03/18 03:31:40;;;;;;;;;;;6.80;99.90;;;;;;5009037;28;19933;-77
2022/03/18 03:34:07;;;;;;;;;;;6.80;99.90;;;;;;5007317;28;20326;-77
2022/03/18 03:36:34;;;;;;;;;;;6.80;99.90;;;;;;5001863;28;19933;-77
2022/03/18 03:39:01;;;;;;;;;;;6.80;99.90;;;;;;5013470;28;20031;-77
2022/03/18 03:41:28;;;;;;;;;;;6.80;99.90;;;;;;5004965;28;19933;-77
2022/03/18 03:43:57;;;;;;;;;;;6.80;99.90;;;;;;4992236;28;19977;-76
2022/03/18 03:46:26;;;;;;;;;;;6.80;99.90;;;;;;5006142;28;19943;-77
2022/03/18 03:48:53;;;;;;;;;;;6.80;99.90;;;;;;5011575;28;19929;-77
2022/03/18 03:51:20;;;;;;;;;;;6.80;99.90;;;;;;4990333;28;19979;-77
2022/03/18 03:53:47;;;;;;;;;;;6.70;99.90;;;;;;5005218;28;19932;-76
2022/03/18 03:56:14;;;;;;;;;;;6.70;99.90;;;;;;4989505;28;20326;-77
2022/03/18 03:58:41;;;;;;;;;;;6.70;99.90;;;;;;4994563;28;19925;-77
2022/03/18 04:01:08;;;;;;;;;;;6.70;99.90;;;;;;4987047;28;20031;-76
2022/03/18 04:03:37;;;;;;;;;;;6.80;99.90;;;;;;5004933;28;19964;-78
2022/03/18 04:06:05;;;;;;;;;;;6.70;99.90;;;;;;5008713;28;20360;-76
2022/03/18 04:08:32;;;;;;;;;;;6.70;99.90;;;;;;5011039;28;19999;-78
2022/03/18 04:10:59;;;;;;;;;;;6.70;99.90;;;;;;5004684;28;19925;-78
2022/03/18 04:13:26;;;;;;;;;;;6.70;99.90;;;;;;4989039;28;20295;-76
2022/03/18 04:15:53;;;;;;;;;;;6.70;99.90;;;;;;4991394;28;19937;-77
2022/03/18 04:18:20;;;;;;;;;;;6.70;99.90;;;;;;4990494;28;19961;-77
2022/03/18 04:20:48;;;;;;;;;;;6.70;99.90;;;;;;5007017;28;19926;-77
2022/03/18 04:23:15;;;;;;;;;;;6.70;99.90;;;;;;4990003;28;19933;-77
2022/03/18 04:25:42;;;;;;;;;;;6.70;99.90;;;;;;4991220;28;19926;-77
2022/03/18 04:28:09;;;;;;;;;;;6.70;99.90;;;;;;5006366;28;19957;-76
2022/03/18 04:30:37;;;;;;;;;;;6.70;99.90;;;;;;5006490;28;19925;-77
2022/03/18 04:33:04;;;;;;;;;;;6.70;99.90;;;;;;4997589;28;19933;-78
2022/03/18 04:35:32;;;;;;;;;;;6.70;99.90;;;;;;5006719;28;20300;-76
2022/03/18 04:38:04;;;;;;;;;;;6.70;99.90;;;;;;4986357;28;19937;-77
2022/03/18 04:40:32;;;;;;;;;;;6.70;99.90;;;;;;5008514;28;19933;-77
2022/03/18 04:42:59;;;;;;;;;;;6.70;99.90;;;;;;5007385;28;22206;-78
2022/03/18 04:45:26;;;;;;;;;;;6.70;99.90;;;;;;5009645;28;19969;-76
2022/03/18 04:47:54;;;;;;;;;;;6.70;99.90;;;;;;5008441;28;20052;-77
2022/03/18 04:50:21;;;;;;;;;;;6.70;99.90;;;;;;4988705;28;19926;-77
2022/03/18 04:52:48;;;;;;;;;;;6.70;99.90;;;;;;5009906;28;20518;-77
2022/03/18 04:55:17;;;;;;;;;;;6.70;99.90;;;;;;5010476;28;19996;-77
2022/03/18 04:57:44;;;;;;;;;;;6.70;99.90;;;;;;4994508;28;19934;-77
2022/03/18 05:00:12;;;;;;;;;;;6.70;99.90;;;;;;4990549;28;19925;-77
2022/03/18 05:02:39;;;;;;;;;;;6.70;99.90;;;;;;5006397;28;19955;-76
2022/03/18 05:05:08;;;;;;;;;;;6.70;99.90;;;;;;5005333;28;19925;-77
2022/03/18 05:07:35;;;;;;;;;;;6.70;99.90;;;;;;4996471;28;19933;-77
2022/03/18 05:10:02;;;;;;;;;;;6.60;99.90;;;;;;4987339;28;19988;-76
2022/03/18 05:12:31;;;;;;;;;;;6.70;99.90;;;;;;5000394;28;19961;-81
2022/03/18 05:14:58;;;;;;;;;;;6.60;99.90;;;;;;4997509;28;19925;-80
2022/03/18 05:17:25;;;;;;;;;;;6.60;99.90;;;;;;5005495;28;20346;-78
2022/03/18 05:19:52;;;;;;;;;;;6.60;99.90;;;;;;4993013;28;19932;-77
2022/03/18 05:22:19;;;;;;;;;;;6.60;99.90;;;;;;5009709;28;19929;-77
2022/03/18 05:24:47;;;;;;;;;;;6.70;99.90;;;;;;4993775;28;20454;-77
2022/03/18 05:27:14;;;;;;;;;;;6.60;99.90;;;;;;5002898;28;20348;-77
2022/03/18 05:29:42;;;;;;;;;;;6.60;99.90;;;;;;4991973;28;19951;-77
2022/03/18 05:32:09;;;;;;;;;;;6.60;99.90;;;;;;4991728;28;19933;-77
2022/03/18 05:34:36;;;;;;;;;;;6.60;99.90;;;;;;4991690;28;19925;-76
2022/03/18 05:37:05;;;;;;;;;;;6.60;99.90;;;;;;5004956;28;19945;-77
2022/03/18 05:39:32;;;;;;;;;;;6.60;99.90;;;;;;4984855;28;20100;-77
2022/03/18 05:41:59;;;;;;;;;;;6.60;99.90;;;;;;5002099;28;19940;-77
2022/03/18 05:44:26;;;;;;;;;;;6.60;99.90;;;;;;5006490;28;19932;-77
2022/03/18 05:46:55;;;;;;;;;;;6.60;99.90;;;;;;5007500;28;19930;-76
2022/03/18 05:49:23;;;;;;;;;;;6.60;99.90;;;;;;5003496;28;19929;-78
2022/03/18 05:51:50;;;;;;;;;;;6.60;99.90;;;;;;4989415;28;20146;-78
2022/03/18 05:54:17;;;;;;;;;;;6.60;99.90;;;;;;5005513;28;20377;-76
2022/03/18 05:56:56;;;;;;;;;;;6.60;99.90;;;;;;5001662;28;19960;-76
2022/03/18 05:59:24;;;;;;;;;;;6.60;99.90;;;;;;4989593;28;19956;-76
2022/03/18 06:01:52;;;;;;;;;;;6.60;99.90;;;;;;4987756;28;19925;-76
2022/03/18 06:04:20;;;;;;;;;;;6.60;99.90;;;;;;4987453;28;20418;-76
2022/03/18 06:06:47;;;;;;;;;;;6.60;99.90;;;;;;5004509;28;20328;-76
2022/03/18 06:11:59;;;;;;;;;;;6.60;99.90;;;;;;5005576;28;19926;-75
2022/03/18 06:14:27;;;;;;;;;;;6.60;99.90;;;;;;4983552;28;19967;-76
2022/03/18 06:16:54;;;;;;;;;;;6.60;99.90;;;;;;4989889;28;19925;-78
2022/03/18 06:19:24;;;;;;;;;;;6.50;99.90;;;;;;5011284;28;19948;-77
2022/03/18 06:21:51;;;;;;;;;;;6.50;99.90;;;;;;4984138;28;20241;-77
2022/03/18 06:24:18;;;;;;;;;;;6.50;99.90;;;;;;5018382;28;19988;-79
2022/03/18 06:26:45;;;;;;;;;;;6.50;99.90;;;;;;5012450;28;20040;-78
2022/03/18 06:29:12;;;;;;;;;;;6.60;99.90;;;;;;5011845;28;20247;-77
2022/03/18 06:31:40;;;;;;;;;;;6.50;99.90;;;;;;5017071;28;20016;-77
2022/03/18 06:34:08;;;;;;;;;;;6.60;99.90;;;;;;5005800;28;20330;-76
2022/03/18 06:36:38;;;;;;;;;;;6.50;99.90;;;;;;4991309;28;19939;-76
2022/03/18 06:39:05;;;;;;;;;;;6.50;99.90;;;;;;4983952;28;20180;-77
2022/03/18 06:41:32;;;;;;;;;;;6.50;99.90;;;;;;4988413;28;19953;-76
2022/03/18 06:44:01;;;;;;;;;;;6.50;99.90;;;;;;5009486;28;19939;-77
2022/03/18 06:46:29;;;;;;;;;;;6.50;99.90;;;;;;5012598;28;19972;-77
2022/03/18 06:48:57;;;;;;;;;;;6.50;99.90;;;;;;5006049;28;19987;-77
2022/03/18 06:51:25;;;;;;;;;;;6.50;99.90;;;;;;5008667;28;20231;-76
2022/03/18 06:54:03;;;;;;;;;;;6.50;99.90;;;;;;5000195;28;19999;-77
2022/03/18 06:56:30;;;;;;;;;;;6.50;99.90;;;;;;5009649;28;20094;-77
2022/03/18 06:58:57;;;;;;;;;;;6.50;99.90;;;;;;4990107;28;19926;-78
2022/03/18 07:01:24;;;;;;;;;;;6.50;99.90;;;;;;4989185;28;20024;-77
2022/03/18 07:03:52;;;;;;;;;;;6.50;99.90;;;;;;5016757;28;19933;-80
2022/03/18 07:06:19;;;;;;;;;;;6.50;99.90;;;;;;4994958;28;20380;-77
2022/03/18 07:08:45;;;;;;;;;;;6.50;99.90;;;;;;5006859;28;20451;-77
2022/03/18 07:11:15;;;;;;;;;;;6.60;99.90;;;;;;4992527;28;20040;-77
2022/03/18 07:13:43;;;;;;;;;;;6.70;99.90;;;;;;5012035;28;19975;-77
2022/03/18 07:18:54;;;;;;;;;;;6.90;99.90;;;;;;5009595;28;20212;-78
2022/03/18 07:21:21;;;;;;;;;;;7.00;99.90;;;;;;5003049;28;19926;-77
2022/03/18 07:23:48;;;;;;;;;;;7.00;99.90;;;;;;5014724;28;19949;-85
2022/03/18 07:26:16;;;;;;;;;;;6.90;99.90;;;;;;4999905;28;19931;-81
2022/03/18 08:07:22;;;;;;;;;;;10.80;99.90;;;;;;5665458;22;19948;-83
2022/03/18 09:22:11;;;;;;;;;;;8.90;99.90;;;;;;5818760;23;19987;-81
2022/03/18 09:27:58;;;;;;;;;;;8.80;99.90;;;;;;5686906;23;19926;-80
2022/03/18 09:30:28;;;;;;;;;;;8.80;99.90;;;;;;4995425;28;19961;-80
2022/03/18 09:32:55;;;;;;;;;;;8.80;99.90;;;;;;4975988;28;19933;-80
2022/03/18 09:42:06;;;;;;;;;;;8.70;99.90;;;;;;5828630;23;19980;-80
2022/03/18 09:57:50;;;;;;;;;;;8.50;99.90;;;;;;4921891;23;19965;-80
2022/03/18 10:00:19;;;;;;;;;;;8.50;99.90;;;;;;5019359;28;19925;-81
2022/03/18 10:53:19;;;;;;;;;;;8.40;99.90;;;;;;5279281;23;19982;-78
2022/03/18 11:39:49;;;;;;;;;;;9.00;99.90;;;;;;5323534;22;19933;-81
2022/03/18 11:42:23;;;;;;;;;;;9.20;99.90;;;;;;5021415;28;19961;-80
2022/03/18 12:41:46;;;;;;;;;;;9.50;99.90;;;;;;6149421;23;19931;-80
2022/03/18 12:50:43;;;;;;;;;;;9.80;99.90;;;;;;6029991;23;19920;-82
2022/03/18 12:53:14;;;;;;;;;;;9.70;99.90;;;;;;5025929;28;20442;-81
2022/03/18 13:34:30;;;;;;;;;;;9.70;99.90;;;;;;4970863;28;19926;-79
2022/03/18 13:37:10;;;;;;;;;;;9.70;99.90;;;;;;4968313;28;19973;-79
2022/03/18 13:39:37;;;;;;;;;;;9.70;99.90;;;;;;4966958;28;20000;-78
2022/03/18 13:42:04;;;;;;;;;;;9.70;99.90;;;;;;4971823;28;20431;-78
2022/03/18 13:44:44;;;;;;;;;;;9.70;99.90;;;;;;4971839;28;20433;-79
2022/03/18 13:47:13;;;;;;;;;;;9.70;99.90;;;;;;4968323;28;20432;-79
2022/03/18 13:49:52;;;;;;;;;;;9.70;99.90;;;;;;4964723;28;19935;-78
2022/03/18 13:52:19;;;;;;;;;;;9.70;99.90;;;;;;4968605;28;20444;-78
2022/03/18 13:54:50;;;;;;;;;;;9.70;99.90;;;;;;4977256;28;19989;-79
2022/03/18 13:57:17;;;;;;;;;;;9.70;99.90;;;;;;4969719;28;20020;-79
2022/03/18 13:59:50;;;;;;;;;;;9.70;99.90;;;;;;4969506;28;19966;-78
2022/03/18 14:02:22;;;;;;;;;;;9.70;99.90;;;;;;4968287;28;19930;-79
2022/03/18 14:04:50;;;;;;;;;;;9.70;99.90;;;;;;4960558;28;20439;-79
2022/03/18 14:07:18;;;;;;;;;;;9.80;99.90;;;;;;4965889;28;19930;-79
2022/03/18 14:09:57;;;;;;;;;;;9.80;99.90;;;;;;4968443;28;19933;-79
2022/03/18 14:12:25;;;;;;;;;;;9.80;99.90;;;;;;4964372;28;19926;-80
2022/03/18 14:15:07;;;;;;;;;;;9.90;99.90;;;;;;4972848;28;19933;-78
2022/03/18 14:17:35;;;;;;;;;;;9.90;99.90;;;;;;4969103;28;19941;-79
2022/03/18 14:20:08;;;;;;;;;;;9.90;99.90;;;;;;4965896;28;19930;-77
2022/03/18 14:22:37;;;;;;;;;;;9.90;99.90;;;;;;4969692;28;19945;-77
2022/03/18 14:25:06;;;;;;;;;;;10.20;99.90;;;;;;4967684;28;20025;-80
2022/03/18 14:27:33;;;;;;;;;;;10.30;99.90;;;;;;4971317;28;19926;-80
2022/03/18 14:30:06;;;;;;;;;;;10.30;99.90;;;;;;4967356;28;19926;-79
2022/03/18 14:32:34;;;;;;;;;;;10.70;99.90;;;;;;4970172;28;19932;-80
2022/03/18 14:35:01;;;;;;;;;;;11.00;99.90;;;;;;4969172;28;19977;-88
2022/03/18 14:37:31;;;;;;;;;;;11.50;99.40;;;;;;4964827;28;19973;-86
2022/03/18 14:40:03;;;;;;;;;;;11.20;97.80;;;;;;4968054;28;19926;-85
2022/03/18 14:42:30;;;;;;;;;;;11.20;97.40;;;;;;4969026;28;19934;-85
2022/03/18 14:44:57;;;;;;;;;;;11.20;96.40;;;;;;4951101;28;20013;-83
2022/03/18 14:47:27;;;;;;;;;;;11.30;98.20;;;;;;4971481;28;19926;-83
2022/03/18 14:49:57;;;;;;;;;;;11.30;98.50;;;;;;4964018;28;20309;-83
2022/03/18 14:52:24;;;;;;;;;;;11.20;97.00;;;;;;4968157;28;19934;-84
2022/03/18 14:57:39;;;;;;;;;;;11.20;95.20;;;;;;4965286;28;19926;-83
2022/03/18 15:00:07;;;;;;;;;;;11.10;95.80;;;;;;4967534;28;20496;-84
2022/03/18 15:02:34;;;;;;;;;;;11.20;94.70;;;;;;4951847;28;20350;-84
2022/03/18 15:05:02;;;;;;;;;;;11.50;95.90;;;;;;4968473;28;19933;-85
2022/03/18 15:07:30;;;;;;;;;;;12.20;94.80;;;;;;4959959;28;19934;-83
2022/03/18 15:09:57;;;;;;;;;;;12.10;94.00;;;;;;4960116;28;19972;-84
2022/03/18 15:12:24;;;;;;;;;;;12.50;94.30;;;;;;4953068;28;19970;-82
2022/03/18 15:14:51;;;;;;;;;;;12.30;92.80;;;;;;4958155;28;19934;-84
2022/03/18 15:17:19;;;;;;;;;;;11.80;92.80;;;;;;4972964;28;19926;-84
2022/03/18 15:19:46;;;;;;;;;;;11.50;92.40;;;;;;4967111;28;19926;-84
2022/03/18 15:22:14;;;;;;;;;;;11.80;93.20;;;;;;4973519;28;20585;-84
2022/03/18 15:24:42;;;;;;;;;;;12.00;92.60;;;;;;4961309;28;20284;-80
2022/03/18 15:27:09;;;;;;;;;;;11.80;93.40;;;;;;4963222;28;20323;-80
2022/03/18 15:29:36;;;;;;;;;;;12.70;93.90;;;;;;4971892;28;19980;-80
2022/03/18 15:32:03;;;;;;;;;;;13.00;94.00;;;;;;4968347;28;19938;-80
2022/03/18 15:34:31;;;;;;;;;;;13.00;94.50;;;;;;4954020;28;19930;-79
2022/03/18 15:36:58;;;;;;;;;;;12.90;95.00;;;;;;4969890;28;19930;-79
2022/03/18 15:39:26;;;;;;;;;;;12.70;95.00;;;;;;4971449;28;20490;-79
2022/03/18 15:41:54;;;;;;;;;;;12.70;95.30;;;;;;4975669;28;21198;-80
2022/03/18 15:44:21;;;;;;;;;;;12.60;95.40;;;;;;4971684;28;19930;-80
2022/03/18 15:46:48;;;;;;;;;;;12.50;95.20;;;;;;4968298;28;19933;-79
2022/03/18 15:49:15;;;;;;;;;;;12.50;95.40;;;;;;4975200;28;19937;-79
2022/03/18 15:51:42;;;;;;;;;;;12.40;95.50;;;;;;4967607;28;19968;-79
2022/03/18 15:54:11;;;;;;;;;;;12.30;95.60;;;;;;4968347;28;20020;-79
2022/03/18 15:56:39;;;;;;;;;;;12.20;95.40;;;;;;4963098;28;20002;-78
2022/03/18 15:59:07;;;;;;;;;;;12.30;95.70;;;;;;4972536;28;20312;-79
2022/03/18 16:01:34;;;;;;;;;;;12.20;95.10;;;;;;4968033;28;19930;-80
2022/03/18 16:04:01;;;;;;;;;;;12.20;95.70;;;;;;4967438;28;19926;-79
2022/03/18 16:06:29;;;;;;;;;;;12.10;95.70;;;;;;4965811;28;20423;-79
2022/03/18 16:08:57;;;;;;;;;;;12.00;95.70;;;;;;4950263;28;19926;-79
2022/03/18 16:11:25;;;;;;;;;;;11.90;95.60;;;;;;4973877;28;20309;-79
2022/03/18 16:13:53;;;;;;;;;;;11.90;95.90;;;;;;4962428;28;20476;-80
2022/03/18 16:16:21;;;;;;;;;;;11.90;96.10;;;;;;4973031;28;20554;-79
2022/03/18 16:18:52;;;;;;;;;;;11.80;96.00;;;;;;4956989;28;19974;-79
2022/03/18 16:21:19;;;;;;;;;;;11.70;95.70;;;;;;4960153;28;19966;-81
2022/03/18 16:23:46;;;;;;;;;;;11.70;95.30;;;;;;4968511;28;19958;-80
2022/03/18 16:26:14;;;;;;;;;;;11.70;95.70;;;;;;4966472;28;20000;-78
2022/03/18 16:28:42;;;;;;;;;;;11.70;96.20;;;;;;4962618;28;20025;-76
2022/03/18 16:31:10;;;;;;;;;;;11.60;95.80;;;;;;4965518;28;19934;-76
2022/03/18 16:33:37;;;;;;;;;;;11.60;95.90;;;;;;4966046;28;20428;-77
2022/03/18 16:36:05;;;;;;;;;;;11.60;96.10;;;;;;4961893;28;19978;-78
2022/03/18 16:38:35;;;;;;;;;;;11.50;95.80;;;;;;4945910;28;19965;-80
2022/03/18 16:41:04;;;;;;;;;;;11.50;95.90;;;;;;4958526;28;19934;-79
2022/03/18 16:43:33;;;;;;;;;;;11.40;95.80;;;;;;4950966;28;19946;-78
2022/03/18 16:51:32;;;;;;;;;;;11.30;95.90;;;;;;4964187;28;19941;-76
2022/03/18 16:53:59;;;;;;;;;;;11.30;96.30;;;;;;4967566;28;19926;-78
2022/03/18 16:56:26;;;;;;;;;;;11.20;96.00;;;;;;4971925;28;19926;-78
2022/03/18 16:58:53;;;;;;;;;;;11.20;96.10;;;;;;4968781;28;20026;-78
2022/03/18 17:01:45;;;;;;;;;;;11.10;96.00;;;;;;4970116;28;20009;-78
2022/03/18 17:04:17;;;;;;;;;;;11.10;96.30;;;;;;4966115;28;19963;-76
2022/03/18 17:06:44;;;;;;;;;;;11.10;95.50;;;;;;4964534;28;20310;-77
2022/03/18 17:09:13;;;;;;;;;;;11.00;95.30;;;;;;4974008;28;19930;-76
2022/03/18 17:11:41;;;;;;;;;;;11.00;95.60;;;;;;4963900;28;19929;-77
2022/03/18 17:14:08;;;;;;;;;;;10.90;95.80;;;;;;4972175;28;19980;-75
2022/03/18 17:16:35;;;;;;;;;;;10.90;96.00;;;;;;4970262;28;20365;-76
2022/03/18 17:19:02;;;;;;;;;;;10.90;96.20;;;;;;4973655;28;20300;-79
2022/03/18 17:21:31;;;;;;;;;;;10.90;96.70;;;;;;4971738;28;20700;-76
2022/03/18 17:23:58;;;;;;;;;;;10.80;96.50;;;;;;4974236;28;19932;-77
2022/03/18 17:26:25;;;;;;;;;;;10.80;96.60;;;;;;4970692;28;19926;-76
2022/03/18 17:28:52;;;;;;;;;;;10.80;96.70;;;;;;4970031;28;20318;-75
2022/03/18 17:31:19;;;;;;;;;;;10.70;96.80;;;;;;4967180;28;19934;-78
2022/03/18 17:33:47;;;;;;;;;;;10.70;96.70;;;;;;4971960;28;19926;-77
2022/03/18 17:36:14;;;;;;;;;;;10.70;96.90;;;;;;4969624;28;19932;-76
2022/03/18 17:38:42;;;;;;;;;;;10.70;97.00;;;;;;4951286;28;19930;-78
2022/03/18 17:41:09;;;;;;;;;;;10.60;97.00;;;;;;4950694;28;20023;-76
2022/03/18 17:43:36;;;;;;;;;;;10.60;97.10;;;;;;4971026;28;19984;-76
2022/03/18 17:46:06;;;;;;;;;;;10.60;97.20;;;;;;4974037;28;19933;-77
2022/03/18 17:48:34;;;;;;;;;;;10.50;97.40;;;;;;4970332;28;20000;-75
2022/03/18 17:51:01;;;;;;;;;;;10.50;97.60;;;;;;4973006;28;19930;-75
2022/03/18 17:53:29;;;;;;;;;;;10.50;97.70;;;;;;4968269;28;19934;-75
2022/03/18 17:55:59;;;;;;;;;;;10.40;97.80;;;;;;4971585;28;19991;-75
2022/03/18 17:58:26;;;;;;;;;;;10.40;97.90;;;;;;4973547;28;19926;-77
2022/03/18 18:00:53;;;;;;;;;;;10.40;98.00;;;;;;4973873;28;19934;-76
2022/03/18 18:03:19;;;;;;;;;;;10.40;98.00;;;;;;4976385;28;19953;-75
2022/03/18 18:05:48;;;;;;;;;;;10.30;98.10;;;;;;4970536;28;19934;-77
2022/03/18 18:08:16;;;;;;;;;;;10.30;98.30;;;;;;4970359;28;19932;-77
2022/03/18 18:10:45;;;;;;;;;;;10.30;98.30;;;;;;4967836;28;20397;-76
2022/03/18 18:13:13;;;;;;;;;;;10.20;98.40;;;;;;4972533;28;20383;-77
2022/03/18 18:15:41;;;;;;;;;;;10.20;98.10;;;;;;4971845;28;19937;-77
2022/03/18 18:18:08;;;;;;;;;;;10.10;98.20;;;;;;4978533;28;19926;-77
2022/03/18 18:23:20;;;;;;;;;;;10.10;98.20;;;;;;4971372;28;19933;-77
2022/03/18 18:25:47;;;;;;;;;;;10.10;98.20;;;;;;4974259;28;19934;-76
2022/03/18 18:28:16;;;;;;;;;;;10.00;98.20;;;;;;4973863;28;19926;-76
2022/03/18 18:30:43;;;;;;;;;;;10.00;98.30;;;;;;4963953;28;19977;-76
2022/03/18 18:33:10;;;;;;;;;;;10.00;98.50;;;;;;4976669;28;20311;-76
2022/03/18 18:35:40;;;;;;;;;;;10.00;98.50;;;;;;4973617;28;19941;-76
2022/03/18 18:38:07;;;;;;;;;;;9.90;98.90;;;;;;4973104;28;19926;-77
2022/03/18 18:40:34;;;;;;;;;;;9.90;98.90;;;;;;4951344;28;19926;-76
2022/03/18 18:43:04;;;;;;;;;;;9.90;99.00;;;;;;4955392;28;19934;-76
2022/03/18 18:45:35;;;;;;;;;;;9.90;99.00;;;;;;4967874;28;19937;-77
2022/03/18 18:48:04;;;;;;;;;;;9.90;98.90;;;;;;4974050;28;19992;-76
2022/03/18 18:50:32;;;;;;;;;;;9.80;99.20;;;;;;4968188;28;19941;-75
2022/03/18 18:52:59;;;;;;;;;;;9.80;99.30;;;;;;4971792;28;20400;-77
2022/03/18 18:55:26;;;;;;;;;;;9.80;99.00;;;;;;4972036;28;20020;-75
2022/03/18 18:57:53;;;;;;;;;;;9.80;99.10;;;;;;4971945;28;19926;-75
2022/03/18 19:00:20;;;;;;;;;;;9.80;99.20;;;;;;4952711;28;19927;-76
2022/03/18 19:02:50;;;;;;;;;;;9.70;99.10;;;;;;4968525;28;20028;-76
2022/03/18 19:05:18;;;;;;;;;;;9.70;99.30;;;;;;4971243;28;19926;-76
2022/03/18 19:07:46;;;;;;;;;;;9.60;99.20;;;;;;4967231;28;21300;-77
2022/03/18 19:10:13;;;;;;;;;;;9.70;99.40;;;;;;4947712;28;19942;-79
2022/03/18 19:12:40;;;;;;;;;;;9.60;99.60;;;;;;4965783;28;20373;-77
2022/03/18 19:15:08;;;;;;;;;;;9.60;99.30;;;;;;4962483;28;20379;-77
2022/03/18 19:17:35;;;;;;;;;;;9.60;99.60;;;;;;4962707;28;19930;-77
2022/03/18 19:20:04;;;;;;;;;;;9.60;99.30;;;;;;4966348;28;19968;-77
2022/03/18 19:22:31;;;;;;;;;;;9.50;99.50;;;;;;4953485;28;19954;-78
2022/03/18 19:24:59;;;;;;;;;;;9.50;99.50;;;;;;4968306;28;19930;-77
2022/03/18 19:27:26;;;;;;;;;;;9.50;99.70;;;;;;4964627;28;19962;-79
2022/03/18 19:32:29;;;;;;;;;;;9.50;99.50;;;;;;4935636;28;19982;-83
2022/03/18 19:34:56;;;;;;;;;;;9.50;99.90;;;;;;4943731;28;19938;-83
2022/03/18 19:37:25;;;;;;;;;;;9.50;99.90;;;;;;4943759;28;19965;-82
2022/03/18 19:39:52;;;;;;;;;;;9.40;99.80;;;;;;4946462;28;19934;-83
2022/03/18 19:42:19;;;;;;;;;;;9.40;99.60;;;;;;4939258;28;19934;-81
2022/03/18 19:44:46;;;;;;;;;;;9.40;99.80;;;;;;4945048;28;19931;-81
2022/03/18 19:47:14;;;;;;;;;;;9.30;99.80;;;;;;4939678;28;19926;-82
2022/03/18 19:49:41;;;;;;;;;;;9.30;99.70;;;;;;4940306;28;19934;-81
2022/03/18 19:52:10;;;;;;;;;;;9.30;99.80;;;;;;4943835;28;20017;-78
2022/03/18 19:54:38;;;;;;;;;;;9.30;99.90;;;;;;4942538;28;20572;-82
2022/03/18 20:02:39;;;;;;;;;;;9.20;99.90;;;;;;4939233;28;21625;-82
2022/03/18 20:05:07;;;;;;;;;;;9.20;99.60;;;;;;4944009;28;20111;-82
2022/03/18 20:07:34;;;;;;;;;;;9.20;99.90;;;;;;4938052;28;19931;-79
2022/03/18 20:10:04;;;;;;;;;;;9.10;99.90;;;;;;4941529;28;19970;-80
2022/03/18 20:12:35;;;;;;;;;;;9.10;99.90;;;;;;4938265;28;20389;-82
2022/03/18 20:15:03;;;;;;;;;;;9.10;99.90;;;;;;4942696;28;20374;-81
2022/03/18 20:17:32;;;;;;;;;;;9.10;99.90;;;;;;4946239;28;20417;-82
2022/03/18 20:19:59;;;;;;;;;;;9.10;99.90;;;;;;4948614;28;19934;-81
2022/03/18 20:22:26;;;;;;;;;;;9.10;99.90;;;;;;4947228;28;19937;-82
2022/03/18 20:24:54;;;;;;;;;;;9.00;99.90;;;;;;4944832;28;20033;-82
2022/03/18 20:27:23;;;;;;;;;;;9.00;99.90;;;;;;4941473;28;19930;-82
2022/03/18 20:29:50;;;;;;;;;;;9.00;99.90;;;;;;4933081;28;19934;-81
2022/03/18 20:32:18;;;;;;;;;;;9.00;99.90;;;;;;4942745;28;19935;-80
2022/03/18 20:34:45;;;;;;;;;;;8.90;99.90;;;;;;4939210;28;19934;-82
2022/03/18 20:37:12;;;;;;;;;;;8.90;99.90;;;;;;4943813;28;19941;-83
2022/03/18 20:39:39;;;;;;;;;;;8.90;99.90;;;;;;4941176;28;19934;-80
2022/03/18 20:42:06;;;;;;;;;;;8.90;99.90;;;;;;4939250;28;20375;-82